Terminal Aerodrome Forecast
Issued by NWS Rapid City, SD

Home | Current Version | Previous Version | Text Only | Print | Product List | Glossary Off
Versions: 1 2 3 4 5 6 7 8 9 10 11 12 13 14 15

000
FTUS43 KUNR 230520
TAFRAP
TAF
KRAP 230520Z 2306/2406 16010KT P6SM VCTS BKN120CB
     FM230700 21012KT P6SM BKN150
     FM231400 32025G35KT P6SM SCT250
     FM231800 32018G28KT P6SM SKC=

USA.gov is the U.S. government's official web portal to all federal, state and local government web resources and services.